sensor_id;sensor_type;location;lat;lon;timestamp;P1;durP1;ratioP1;P2;durP2;ratioP2
37299;SDS011;23184;51.902;12.836;2022-07-06T00:01:17;8.13;;;3.08;;
37299;SDS011;23184;51.902;12.836;2022-07-06T00:03:43;5.70;;;2.95;;
37299;SDS011;23184;51.902;12.836;2022-07-06T00:06:08;6.00;;;2.50;;
37299;SDS011;23184;51.902;12.836;2022-07-06T00:08:34;4.45;;;2.13;;
37299;SDS011;23184;51.902;12.836;2022-07-06T00:11:00;3.67;;;2.13;;
37299;SDS011;23184;51.902;12.836;2022-07-06T00:13:26;4.05;;;1.80;;
37299;SDS011;23184;51.902;12.836;2022-07-06T00:15:51;4.20;;;1.70;;
37299;SDS011;23184;51.902;12.836;2022-07-06T00:18:17;4.47;;;1.80;;
37299;SDS011;23184;51.902;12.836;2022-07-06T00:20:43;4.70;;;1.73;;
37299;SDS011;23184;51.902;12.836;2022-07-06T00:23:08;8.38;;;1.90;;
37299;SDS011;23184;51.902;12.836;2022-07-06T00:25:33;4.47;;;1.63;;
37299;SDS011;23184;51.902;12.836;2022-07-06T00:27:59;2.85;;;1.40;;
37299;SDS011;23184;51.902;12.836;2022-07-06T00:30:24;4.05;;;1.42;;
37299;SDS011;23184;51.902;12.836;2022-07-06T00:32:50;4.07;;;1.63;;
37299;SDS011;23184;51.902;12.836;2022-07-06T00:35:15;4.07;;;1.50;;
37299;SDS011;23184;51.902;12.836;2022-07-06T00:37:41;5.70;;;1.92;;
37299;SDS011;23184;51.902;12.836;2022-07-06T00:40:07;3.00;;;1.45;;
37299;SDS011;23184;51.902;12.836;2022-07-06T00:42:39;5.90;;;1.95;;
37299;SDS011;23184;51.902;12.836;2022-07-06T00:45:05;9.57;;;1.58;;
37299;SDS011;23184;51.902;12.836;2022-07-06T00:47:31;3.05;;;1.38;;
37299;SDS011;23184;51.902;12.836;2022-07-06T00:49:57;2.65;;;1.23;;
37299;SDS011;23184;51.902;12.836;2022-07-06T00:53:25;5.78;;;1.52;;
37299;SDS011;23184;51.902;12.836;2022-07-06T00:55:34;5.70;;;1.65;;
37299;SDS011;23184;51.902;12.836;2022-07-06T00:58:05;5.97;;;1.60;;
37299;SDS011;23184;51.902;12.836;2022-07-06T01:00:31;3.05;;;1.33;;
37299;SDS011;23184;51.902;12.836;2022-07-06T01:02:57;4.10;;;1.52;;
37299;SDS011;23184;51.902;12.836;2022-07-06T01:05:23;2.88;;;1.40;;
37299;SDS011;23184;51.902;12.836;2022-07-06T01:07:49;2.28;;;1.30;;
37299;SDS011;23184;51.902;12.836;2022-07-06T01:10:17;2.83;;;1.30;;
37299;SDS011;23184;51.902;12.836;2022-07-06T01:12:44;2.47;;;1.30;;
37299;SDS011;23184;51.902;12.836;2022-07-06T01:15:15;5.65;;;1.60;;
37299;SDS011;23184;51.902;12.836;2022-07-06T01:17:43;7.10;;;1.50;;
37299;SDS011;23184;51.902;12.836;2022-07-06T01:22:42;3.95;;;1.33;;
37299;SDS011;23184;51.902;12.836;2022-07-06T01:25:11;2.78;;;1.20;;
37299;SDS011;23184;51.902;12.836;2022-07-06T01:27:38;6.25;;;1.50;;
37299;SDS011;23184;51.902;12.836;2022-07-06T01:30:05;2.95;;;1.20;;
37299;SDS011;23184;51.902;12.836;2022-07-06T01:32:33;5.25;;;1.35;;
37299;SDS011;23184;51.902;12.836;2022-07-06T01:35:00;2.55;;;1.30;;
37299;SDS011;23184;51.902;12.836;2022-07-06T01:37:26;2.72;;;1.20;;
37299;SDS011;23184;51.902;12.836;2022-07-06T01:39:51;6.35;;;1.27;;
37299;SDS011;23184;51.902;12.836;2022-07-06T01:42:17;5.07;;;1.17;;
37299;SDS011;23184;51.902;12.836;2022-07-06T01:44:43;2.15;;;1.15;;
37299;SDS011;23184;51.902;12.836;2022-07-06T01:47:09;4.45;;;1.50;;
37299;SDS011;23184;51.902;12.836;2022-07-06T01:49:35;4.10;;;1.13;;
37299;SDS011;23184;51.902;12.836;2022-07-06T01:52:01;4.20;;;1.60;;
37299;SDS011;23184;51.902;12.836;2022-07-06T01:54:27;5.95;;;1.27;;
37299;SDS011;23184;51.902;12.836;2022-07-06T01:56:53;3.90;;;1.60;;
37299;SDS011;23184;51.902;12.836;2022-07-06T01:59:18;3.83;;;1.60;;
37299;SDS011;23184;51.902;12.836;2022-07-06T02:01:44;4.65;;;1.48;;
37299;SDS011;23184;51.902;12.836;2022-07-06T02:04:09;3.05;;;1.67;;
37299;SDS011;23184;51.902;12.836;2022-07-06T02:06:35;4.45;;;1.63;;
37299;SDS011;23184;51.902;12.836;2022-07-06T02:09:00;4.18;;;1.52;;
37299;SDS011;23184;51.902;12.836;2022-07-06T02:11:26;6.38;;;1.75;;
37299;SDS011;23184;51.902;12.836;2022-07-06T02:13:52;7.50;;;1.70;;
37299;SDS011;23184;51.902;12.836;2022-07-06T02:16:18;4.97;;;1.38;;
37299;SDS011;23184;51.902;12.836;2022-07-06T02:18:43;5.50;;;1.63;;
37299;SDS011;23184;51.902;12.836;2022-07-06T02:21:09;4.35;;;1.63;;
37299;SDS011;23184;51.902;12.836;2022-07-06T02:23:34;3.60;;;1.65;;
37299;SDS011;23184;51.902;12.836;2022-07-06T02:26:00;4.55;;;1.55;;
37299;SDS011;23184;51.902;12.836;2022-07-06T02:28:25;2.88;;;1.60;;
37299;SDS011;23184;51.902;12.836;2022-07-06T02:30:51;3.28;;;1.50;;
37299;SDS011;23184;51.902;12.836;2022-07-06T02:33:16;4.85;;;1.55;;
37299;SDS011;23184;51.902;12.836;2022-07-06T02:35:42;4.60;;;1.50;;
37299;SDS011;23184;51.902;12.836;2022-07-06T02:38:08;3.90;;;1.80;;
37299;SDS011;23184;51.902;12.836;2022-07-06T02:40:34;6.47;;;1.70;;
37299;SDS011;23184;51.902;12.836;2022-07-06T02:43:00;3.58;;;1.50;;
37299;SDS011;23184;51.902;12.836;2022-07-06T02:45:25;5.80;;;1.60;;
37299;SDS011;23184;51.902;12.836;2022-07-06T02:47:51;4.85;;;1.70;;
37299;SDS011;23184;51.902;12.836;2022-07-06T02:50:18;6.75;;;1.58;;
37299;SDS011;23184;51.902;12.836;2022-07-06T02:52:43;5.55;;;2.25;;
37299;SDS011;23184;51.902;12.836;2022-07-06T02:55:09;2.95;;;1.30;;
37299;SDS011;23184;51.902;12.836;2022-07-06T02:57:35;5.72;;;1.48;;
37299;SDS011;23184;51.902;12.836;2022-07-06T03:00:00;3.60;;;1.55;;
37299;SDS011;23184;51.902;12.836;2022-07-06T03:02:26;5.63;;;1.50;;
37299;SDS011;23184;51.902;12.836;2022-07-06T03:04:52;5.82;;;2.63;;
37299;SDS011;23184;51.902;12.836;2022-07-06T03:07:17;5.75;;;1.65;;
37299;SDS011;23184;51.902;12.836;2022-07-06T03:09:43;4.38;;;1.73;;
37299;SDS011;23184;51.902;12.836;2022-07-06T03:12:08;3.17;;;1.70;;
37299;SDS011;23184;51.902;12.836;2022-07-06T03:14:34;4.05;;;1.85;;
37299;SDS011;23184;51.902;12.836;2022-07-06T03:16:59;4.43;;;1.52;;
37299;SDS011;23184;51.902;12.836;2022-07-06T03:19:25;3.10;;;1.55;;
37299;SDS011;23184;51.902;12.836;2022-07-06T03:21:50;5.55;;;1.40;;
37299;SDS011;23184;51.902;12.836;2022-07-06T03:24:16;5.18;;;1.35;;
37299;SDS011;23184;51.902;12.836;2022-07-06T03:26:41;5.43;;;1.50;;
37299;SDS011;23184;51.902;12.836;2022-07-06T03:29:07;3.60;;;1.42;;
37299;SDS011;23184;51.902;12.836;2022-07-06T03:31:32;6.38;;;1.60;;
37299;SDS011;23184;51.902;12.836;2022-07-06T03:33:58;2.88;;;1.50;;
37299;SDS011;23184;51.902;12.836;2022-07-06T03:36:23;3.97;;;1.38;;
37299;SDS011;23184;51.902;12.836;2022-07-06T03:38:49;8.40;;;1.38;;
37299;SDS011;23184;51.902;12.836;2022-07-06T03:41:14;4.70;;;1.50;;
37299;SDS011;23184;51.902;12.836;2022-07-06T03:43:40;5.63;;;1.35;;
37299;SDS011;23184;51.902;12.836;2022-07-06T03:46:05;4.18;;;1.60;;
37299;SDS011;23184;51.902;12.836;2022-07-06T03:48:31;4.97;;;1.65;;
37299;SDS011;23184;51.902;12.836;2022-07-06T03:50:56;3.70;;;1.30;;
37299;SDS011;23184;51.902;12.836;2022-07-06T03:53:22;4.05;;;1.25;;
37299;SDS011;23184;51.902;12.836;2022-07-06T03:55:47;4.80;;;1.40;;
37299;SDS011;23184;51.902;12.836;2022-07-06T03:58:33;7.03;;;1.67;;
37299;SDS011;23184;51.902;12.836;2022-07-06T04:00:58;4.82;;;1.67;;
37299;SDS011;23184;51.902;12.836;2022-07-06T04:03:24;8.48;;;1.38;;
37299;SDS011;23184;51.902;12.836;2022-07-06T04:05:49;2.95;;;1.20;;
37299;SDS011;23184;51.902;12.836;2022-07-06T04:08:15;5.70;;;1.40;;
37299;SDS011;23184;51.902;12.836;2022-07-06T04:10:40;6.38;;;1.60;;
37299;SDS011;23184;51.902;12.836;2022-07-06T04:13:06;3.05;;;1.33;;
37299;SDS011;23184;51.902;12.836;2022-07-06T04:15:31;4.80;;;1.40;;
37299;SDS011;23184;51.902;12.836;2022-07-06T04:17:57;4.65;;;1.45;;
37299;SDS011;23184;51.902;12.836;2022-07-06T04:20:23;3.40;;;1.17;;
37299;SDS011;23184;51.902;12.836;2022-07-06T04:22:50;2.85;;;1.08;;
37299;SDS011;23184;51.902;12.836;2022-07-06T04:25:16;5.25;;;1.25;;
37299;SDS011;23184;51.902;12.836;2022-07-06T04:27:42;5.75;;;1.40;;
37299;SDS011;23184;51.902;12.836;2022-07-06T04:30:08;3.92;;;1.23;;
37299;SDS011;23184;51.902;12.836;2022-07-06T04:32:35;3.78;;;1.13;;
37299;SDS011;23184;51.902;12.836;2022-07-06T04:35:01;3.80;;;1.20;;
37299;SDS011;23184;51.902;12.836;2022-07-06T04:37:27;5.32;;;1.40;;
37299;SDS011;23184;51.902;12.836;2022-07-06T04:39:53;3.05;;;1.20;;
37299;SDS011;23184;51.902;12.836;2022-07-06T04:42:18;4.22;;;1.20;;
37299;SDS011;23184;51.902;12.836;2022-07-06T04:44:44;3.38;;;1.60;;
37299;SDS011;23184;51.902;12.836;2022-07-06T04:47:10;6.22;;;1.42;;
37299;SDS011;23184;51.902;12.836;2022-07-06T04:49:36;5.32;;;1.23;;
37299;SDS011;23184;51.902;12.836;2022-07-06T04:52:02;5.38;;;1.40;;
37299;SDS011;23184;51.902;12.836;2022-07-06T04:54:28;3.78;;;1.30;;
37299;SDS011;23184;51.902;12.836;2022-07-06T04:56:53;4.88;;;1.27;;
37299;SDS011;23184;51.902;12.836;2022-07-06T04:59:19;3.28;;;1.00;;
37299;SDS011;23184;51.902;12.836;2022-07-06T05:01:44;5.60;;;1.23;;
37299;SDS011;23184;51.902;12.836;2022-07-06T05:04:09;4.80;;;1.13;;
37299;SDS011;23184;51.902;12.836;2022-07-06T05:06:35;4.70;;;1.15;;
37299;SDS011;23184;51.902;12.836;2022-07-06T05:09:00;5.47;;;1.08;;
37299;SDS011;23184;51.902;12.836;2022-07-06T05:11:26;3.20;;;1.00;;
37299;SDS011;23184;51.902;12.836;2022-07-06T05:13:52;3.17;;;1.08;;
37299;SDS011;23184;51.902;12.836;2022-07-06T05:16:18;3.90;;;1.20;;
37299;SDS011;23184;51.902;12.836;2022-07-06T05:18:43;3.58;;;1.13;;
37299;SDS011;23184;51.902;12.836;2022-07-06T05:21:09;5.85;;;1.08;;
37299;SDS011;23184;51.902;12.836;2022-07-06T05:23:34;4.55;;;1.00;;
37299;SDS011;23184;51.902;12.836;2022-07-06T05:26:00;6.90;;;1.00;;
37299;SDS011;23184;51.902;12.836;2022-07-06T05:28:25;3.67;;;1.10;;
37299;SDS011;23184;51.902;12.836;2022-07-06T05:30:51;4.90;;;1.20;;
37299;SDS011;23184;51.902;12.836;2022-07-06T05:33:17;8.30;;;1.20;;
37299;SDS011;23184;51.902;12.836;2022-07-06T05:35:42;4.28;;;1.45;;
37299;SDS011;23184;51.902;12.836;2022-07-06T05:38:08;5.82;;;1.10;;
37299;SDS011;23184;51.902;12.836;2022-07-06T05:40:33;5.10;;;1.10;;
37299;SDS011;23184;51.902;12.836;2022-07-06T05:42:59;5.68;;;1.10;;
37299;SDS011;23184;51.902;12.836;2022-07-06T05:45:24;4.88;;;1.10;;
37299;SDS011;23184;51.902;12.836;2022-07-06T05:47:50;4.78;;;0.93;;
37299;SDS011;23184;51.902;12.836;2022-07-06T05:53:03;6.30;;;1.00;;
37299;SDS011;23184;51.902;12.836;2022-07-06T05:55:30;3.75;;;1.05;;
37299;SDS011;23184;51.902;12.836;2022-07-06T05:57:56;7.93;;;1.00;;
37299;SDS011;23184;51.902;12.836;2022-07-06T06:00:24;12.48;;;2.03;;
37299;SDS011;23184;51.902;12.836;2022-07-06T06:02:52;8.82;;;1.40;;
37299;SDS011;23184;51.902;12.836;2022-07-06T06:05:18;4.10;;;0.90;;
37299;SDS011;23184;51.902;12.836;2022-07-06T06:07:44;3.67;;;0.95;;
37299;SDS011;23184;51.902;12.836;2022-07-06T06:10:15;7.65;;;1.42;;
37299;SDS011;23184;51.902;12.836;2022-07-06T06:12:42;5.20;;;1.33;;
37299;SDS011;23184;51.902;12.836;2022-07-06T06:15:08;7.40;;;1.17;;
37299;SDS011;23184;51.902;12.836;2022-07-06T06:17:35;3.92;;;1.15;;
37299;SDS011;23184;51.902;12.836;2022-07-06T06:20:02;8.02;;;1.20;;
37299;SDS011;23184;51.902;12.836;2022-07-06T06:22:43;5.75;;;1.20;;
37299;SDS011;23184;51.902;12.836;2022-07-06T06:25:20;3.30;;;0.90;;
37299;SDS011;23184;51.902;12.836;2022-07-06T06:30:19;4.07;;;0.90;;
37299;SDS011;23184;51.902;12.836;2022-07-06T06:32:44;8.55;;;1.27;;
37299;SDS011;23184;51.902;12.836;2022-07-06T06:35:10;4.22;;;0.95;;
37299;SDS011;23184;51.902;12.836;2022-07-06T06:37:36;6.28;;;1.65;;
37299;SDS011;23184;51.902;12.836;2022-07-06T06:40:02;8.30;;;1.38;;
37299;SDS011;23184;51.902;12.836;2022-07-06T06:42:28;7.07;;;1.20;;
37299;SDS011;23184;51.902;12.836;2022-07-06T06:44:54;4.15;;;1.08;;
37299;SDS011;23184;51.902;12.836;2022-07-06T06:47:19;7.72;;;1.20;;
37299;SDS011;23184;51.902;12.836;2022-07-06T06:49:45;3.58;;;0.85;;
37299;SDS011;23184;51.902;12.836;2022-07-06T06:52:11;3.67;;;0.95;;
37299;SDS011;23184;51.902;12.836;2022-07-06T06:54:36;5.07;;;1.10;;
37299;SDS011;23184;51.902;12.836;2022-07-06T06:57:02;3.90;;;0.80;;
37299;SDS011;23184;51.902;12.836;2022-07-06T06:59:27;5.35;;;1.20;;
37299;SDS011;23184;51.902;12.836;2022-07-06T07:01:53;3.75;;;1.00;;
37299;SDS011;23184;51.902;12.836;2022-07-06T07:04:18;2.83;;;1.05;;
37299;SDS011;23184;51.902;12.836;2022-07-06T07:06:44;2.50;;;1.00;;
37299;SDS011;23184;51.902;12.836;2022-07-06T07:09:09;2.58;;;1.00;;
37299;SDS011;23184;51.902;12.836;2022-07-06T07:11:35;2.70;;;0.70;;
37299;SDS011;23184;51.902;12.836;2022-07-06T07:14:00;2.20;;;0.80;;
37299;SDS011;23184;51.902;12.836;2022-07-06T07:16:27;2.55;;;1.00;;
37299;SDS011;23184;51.902;12.836;2022-07-06T07:18:52;2.90;;;0.70;;
37299;SDS011;23184;51.902;12.836;2022-07-06T07:21:18;2.30;;;0.70;;
37299;SDS011;23184;51.902;12.836;2022-07-06T07:23:44;3.10;;;0.90;;
37299;SDS011;23184;51.902;12.836;2022-07-06T07:26:09;4.85;;;0.93;;
37299;SDS011;23184;51.902;12.836;2022-07-06T07:28:35;1.20;;;0.70;;
37299;SDS011;23184;51.902;12.836;2022-07-06T07:31:01;2.33;;;0.80;;
37299;SDS011;23184;51.902;12.836;2022-07-06T07:33:27;4.75;;;0.88;;
37299;SDS011;23184;51.902;12.836;2022-07-06T07:35:52;3.28;;;1.00;;
37299;SDS011;23184;51.902;12.836;2022-07-06T07:38:18;2.35;;;1.00;;
37299;SDS011;23184;51.902;12.836;2022-07-06T07:40:43;1.77;;;0.88;;
37299;SDS011;23184;51.902;12.836;2022-07-06T07:43:10;2.65;;;0.70;;
37299;SDS011;23184;51.902;12.836;2022-07-06T07:45:35;2.95;;;0.80;;
37299;SDS011;23184;51.902;12.836;2022-07-06T07:48:01;3.55;;;1.10;;
37299;SDS011;23184;51.902;12.836;2022-07-06T07:50:26;4.53;;;0.90;;
37299;SDS011;23184;51.902;12.836;2022-07-06T07:52:52;3.92;;;0.70;;
37299;SDS011;23184;51.902;12.836;2022-07-06T07:55:18;2.50;;;1.02;;
37299;SDS011;23184;51.902;12.836;2022-07-06T07:57:43;2.63;;;1.00;;
37299;SDS011;23184;51.902;12.836;2022-07-06T08:00:09;5.57;;;1.40;;
37299;SDS011;23184;51.902;12.836;2022-07-06T08:02:35;1.50;;;0.70;;
37299;SDS011;23184;51.902;12.836;2022-07-06T08:05:01;3.72;;;0.93;;
37299;SDS011;23184;51.902;12.836;2022-07-06T08:07:27;4.43;;;0.80;;
37299;SDS011;23184;51.902;12.836;2022-07-06T08:09:52;9.20;;;1.58;;
37299;SDS011;23184;51.902;12.836;2022-07-06T08:12:17;5.82;;;1.08;;
37299;SDS011;23184;51.902;12.836;2022-07-06T08:14:43;3.90;;;0.95;;
37299;SDS011;23184;51.902;12.836;2022-07-06T08:17:09;8.75;;;0.90;;
37299;SDS011;23184;51.902;12.836;2022-07-06T08:19:34;4.22;;;0.90;;
37299;SDS011;23184;51.902;12.836;2022-07-06T08:21:59;5.15;;;1.08;;
37299;SDS011;23184;51.902;12.836;2022-07-06T08:24:25;4.80;;;1.02;;
37299;SDS011;23184;51.902;12.836;2022-07-06T08:26:50;1.70;;;0.70;;
37299;SDS011;23184;51.902;12.836;2022-07-06T08:29:16;5.03;;;1.00;;
37299;SDS011;23184;51.902;12.836;2022-07-06T08:31:41;2.83;;;1.02;;
37299;SDS011;23184;51.902;12.836;2022-07-06T08:34:07;1.42;;;0.52;;
37299;SDS011;23184;51.902;12.836;2022-07-06T08:36:32;3.75;;;0.82;;
37299;SDS011;23184;51.902;12.836;2022-07-06T08:38:59;3.65;;;1.08;;
37299;SDS011;23184;51.902;12.836;2022-07-06T08:41:25;4.13;;;0.70;;
37299;SDS011;23184;51.902;12.836;2022-07-06T08:43:53;3.58;;;0.80;;
37299;SDS011;23184;51.902;12.836;2022-07-06T08:46:19;2.03;;;1.00;;
37299;SDS011;23184;51.902;12.836;2022-07-06T08:48:45;3.58;;;0.93;;
37299;SDS011;23184;51.902;12.836;2022-07-06T08:51:12;6.50;;;0.90;;
37299;SDS011;23184;51.902;12.836;2022-07-06T08:53:40;5.43;;;1.55;;
37299;SDS011;23184;51.902;12.836;2022-07-06T08:56:07;2.90;;;1.05;;
37299;SDS011;23184;51.902;12.836;2022-07-06T08:58:33;3.17;;;1.00;;
37299;SDS011;23184;51.902;12.836;2022-07-06T09:00:59;8.88;;;2.08;;
37299;SDS011;23184;51.902;12.836;2022-07-06T09:03:25;11.10;;;2.70;;
37299;SDS011;23184;51.902;12.836;2022-07-06T09:05:51;3.45;;;0.80;;
37299;SDS011;23184;51.902;12.836;2022-07-06T09:08:21;7.25;;;3.70;;
37299;SDS011;23184;51.902;12.836;2022-07-06T09:10:49;1.80;;;0.80;;
37299;SDS011;23184;51.902;12.836;2022-07-06T09:13:15;2.97;;;0.80;;
37299;SDS011;23184;51.902;12.836;2022-07-06T09:15:40;5.53;;;1.48;;
37299;SDS011;23184;51.902;12.836;2022-07-06T09:18:06;5.07;;;2.03;;
37299;SDS011;23184;51.902;12.836;2022-07-06T09:20:32;5.93;;;2.70;;
37299;SDS011;23184;51.902;12.836;2022-07-06T09:22:59;4.50;;;1.23;;
37299;SDS011;23184;51.902;12.836;2022-07-06T09:25:25;4.20;;;0.93;;
37299;SDS011;23184;51.902;12.836;2022-07-06T09:27:52;4.13;;;0.90;;
37299;SDS011;23184;51.902;12.836;2022-07-06T09:30:21;1.90;;;1.00;;
37299;SDS011;23184;51.902;12.836;2022-07-06T09:32:51;2.17;;;0.85;;
37299;SDS011;23184;51.902;12.836;2022-07-06T09:35:29;3.80;;;0.88;;
37299;SDS011;23184;51.902;12.836;2022-07-06T09:40:25;2.17;;;0.60;;
37299;SDS011;23184;51.902;12.836;2022-07-06T09:42:51;2.47;;;0.98;;
37299;SDS011;23184;51.902;12.836;2022-07-06T09:45:32;3.50;;;1.10;;
37299;SDS011;23184;51.902;12.836;2022-07-06T09:48:05;3.30;;;0.90;;
37299;SDS011;23184;51.902;12.836;2022-07-06T09:50:38;2.20;;;0.77;;
37299;SDS011;23184;51.902;12.836;2022-07-06T09:53:08;3.17;;;0.70;;
37299;SDS011;23184;51.902;12.836;2022-07-06T09:55:35;1.80;;;0.70;;
37299;SDS011;23184;51.902;12.836;2022-07-06T09:58:00;2.33;;;0.73;;
37299;SDS011;23184;51.902;12.836;2022-07-06T10:00:26;1.13;;;0.50;;
37299;SDS011;23184;51.902;12.836;2022-07-06T10:02:51;2.17;;;0.75;;
37299;SDS011;23184;51.902;12.836;2022-07-06T10:05:18;3.78;;;0.70;;
37299;SDS011;23184;51.902;12.836;2022-07-06T10:07:51;3.50;;;0.90;;
37299;SDS011;23184;51.902;12.836;2022-07-06T10:10:19;2.75;;;0.85;;
37299;SDS011;23184;51.902;12.836;2022-07-06T10:12:45;5.00;;;0.80;;
37299;SDS011;23184;51.902;12.836;2022-07-06T10:15:14;1.35;;;0.52;;
37299;SDS011;23184;51.902;12.836;2022-07-06T10:17:41;2.80;;;0.70;;
37299;SDS011;23184;51.902;12.836;2022-07-06T10:20:07;2.45;;;0.70;;
37299;SDS011;23184;51.902;12.836;2022-07-06T10:22:34;3.95;;;1.23;;
37299;SDS011;23184;51.902;12.836;2022-07-06T10:25:00;2.35;;;0.70;;
37299;SDS011;23184;51.902;12.836;2022-07-06T10:27:27;2.85;;;0.70;;
37299;SDS011;23184;51.902;12.836;2022-07-06T10:29:54;4.18;;;0.95;;
37299;SDS011;23184;51.902;12.836;2022-07-06T10:32:19;3.20;;;0.60;;
37299;SDS011;23184;51.902;12.836;2022-07-06T10:34:46;1.38;;;0.80;;
37299;SDS011;23184;51.902;12.836;2022-07-06T10:37:23;3.58;;;0.90;;
37299;SDS011;23184;51.902;12.836;2022-07-06T10:39:50;3.92;;;0.60;;
37299;SDS011;23184;51.902;12.836;2022-07-06T10:50:36;2.90;;;0.68;;
37299;SDS011;23184;51.902;12.836;2022-07-06T10:53:02;1.60;;;0.75;;
37299;SDS011;23184;51.902;12.836;2022-07-06T10:55:35;1.55;;;0.60;;
37299;SDS011;23184;51.902;12.836;2022-07-06T10:58:02;2.13;;;0.60;;
37299;SDS011;23184;51.902;12.836;2022-07-06T11:03:33;1.92;;;0.50;;
37299;SDS011;23184;51.902;12.836;2022-07-06T11:09:05;1.33;;;0.40;;
37299;SDS011;23184;51.902;12.836;2022-07-06T11:14:05;1.77;;;0.70;;
37299;SDS011;23184;51.902;12.836;2022-07-06T11:16:33;1.40;;;0.43;;
37299;SDS011;23184;51.902;12.836;2022-07-06T11:19:12;1.92;;;0.32;;
37299;SDS011;23184;51.902;12.836;2022-07-06T11:21:52;4.80;;;1.35;;
37299;SDS011;23184;51.902;12.836;2022-07-06T11:24:30;2.30;;;0.52;;
37299;SDS011;23184;51.902;12.836;2022-07-06T11:26:58;2.42;;;0.80;;
37299;SDS011;23184;51.902;12.836;2022-07-06T11:29:25;5.30;;;0.57;;
37299;SDS011;23184;51.902;12.836;2022-07-06T11:31:56;3.25;;;0.75;;
37299;SDS011;23184;51.902;12.836;2022-07-06T11:34:27;3.75;;;0.60;;
37299;SDS011;23184;51.902;12.836;2022-07-06T11:36:55;3.55;;;0.75;;
37299;SDS011;23184;51.902;12.836;2022-07-06T11:39:29;2.55;;;0.52;;
37299;SDS011;23184;51.902;12.836;2022-07-06T11:41:55;3.58;;;0.68;;
37299;SDS011;23184;51.902;12.836;2022-07-06T11:44:21;2.15;;;0.50;;
37299;SDS011;23184;51.902;12.836;2022-07-06T11:46:47;1.33;;;0.55;;
37299;SDS011;23184;51.902;12.836;2022-07-06T11:49:14;2.50;;;0.70;;
37299;SDS011;23184;51.902;12.836;2022-07-06T11:51:40;1.20;;;0.43;;
37299;SDS011;23184;51.902;12.836;2022-07-06T11:54:13;1.95;;;0.55;;
37299;SDS011;23184;51.902;12.836;2022-07-06T11:56:47;1.42;;;0.60;;
37299;SDS011;23184;51.902;12.836;2022-07-06T11:59:27;0.85;;;0.63;;
37299;SDS011;23184;51.902;12.836;2022-07-06T12:01:57;3.80;;;0.88;;
37299;SDS011;23184;51.902;12.836;2022-07-06T12:04:24;1.95;;;0.70;;
37299;SDS011;23184;51.902;12.836;2022-07-06T12:06:50;1.55;;;0.47;;
37299;SDS011;23184;51.902;12.836;2022-07-06T12:09:15;4.15;;;0.65;;
37299;SDS011;23184;51.902;12.836;2022-07-06T12:11:43;3.00;;;0.65;;
37299;SDS011;23184;51.902;12.836;2022-07-06T12:14:18;2.08;;;0.50;;
37299;SDS011;23184;51.902;12.836;2022-07-06T12:16:46;4.25;;;1.50;;
37299;SDS011;23184;51.902;12.836;2022-07-06T12:19:13;1.90;;;0.40;;
37299;SDS011;23184;51.902;12.836;2022-07-06T12:21:48;0.85;;;0.30;;
37299;SDS011;23184;51.902;12.836;2022-07-06T12:24:22;1.23;;;0.45;;
37299;SDS011;23184;51.902;12.836;2022-07-06T12:26:48;1.00;;;0.45;;
37299;SDS011;23184;51.902;12.836;2022-07-06T12:29:15;0.47;;;0.40;;
37299;SDS011;23184;51.902;12.836;2022-07-06T12:31:43;3.45;;;0.52;;
37299;SDS011;23184;51.902;12.836;2022-07-06T12:34:14;1.35;;;0.57;;
37299;SDS011;23184;51.902;12.836;2022-07-06T12:36:49;2.35;;;0.50;;
37299;SDS011;23184;51.902;12.836;2022-07-06T12:39:17;3.03;;;0.32;;
37299;SDS011;23184;51.902;12.836;2022-07-06T12:41:45;2.00;;;0.40;;
37299;SDS011;23184;51.902;12.836;2022-07-06T12:44:25;3.80;;;0.40;;
37299;SDS011;23184;51.902;12.836;2022-07-06T12:47:04;2.70;;;0.60;;
37299;SDS011;23184;51.902;12.836;2022-07-06T12:49:31;2.10;;;0.70;;
37299;SDS011;23184;51.902;12.836;2022-07-06T12:57:10;1.92;;;0.50;;
37299;SDS011;23184;51.902;12.836;2022-07-06T12:59:42;0.90;;;0.30;;
37299;SDS011;23184;51.902;12.836;2022-07-06T13:05:06;2.30;;;0.30;;
37299;SDS011;23184;51.902;12.836;2022-07-06T13:07:35;1.05;;;0.38;;
37299;SDS011;23184;51.902;12.836;2022-07-06T13:10:03;1.85;;;0.55;;
37299;SDS011;23184;51.902;12.836;2022-07-06T13:12:30;1.23;;;0.52;;
37299;SDS011;23184;51.902;12.836;2022-07-06T13:14:56;0.75;;;0.20;;
37299;SDS011;23184;51.902;12.836;2022-07-06T13:17:21;2.58;;;0.40;;
37299;SDS011;23184;51.902;12.836;2022-07-06T13:19:47;1.20;;;0.40;;
37299;SDS011;23184;51.902;12.836;2022-07-06T13:22:13;3.05;;;0.32;;
37299;SDS011;23184;51.902;12.836;2022-07-06T13:24:38;2.70;;;0.68;;
37299;SDS011;23184;51.902;12.836;2022-07-06T13:27:04;3.22;;;0.60;;
37299;SDS011;23184;51.902;12.836;2022-07-06T13:29:30;2.80;;;0.60;;
37299;SDS011;23184;51.902;12.836;2022-07-06T13:31:56;2.75;;;0.52;;
37299;SDS011;23184;51.902;12.836;2022-07-06T13:34:21;3.03;;;0.63;;
37299;SDS011;23184;51.902;12.836;2022-07-06T13:36:47;2.58;;;0.57;;
37299;SDS011;23184;51.902;12.836;2022-07-06T13:39:12;1.85;;;0.50;;
37299;SDS011;23184;51.902;12.836;2022-07-06T13:41:38;1.27;;;0.50;;
37299;SDS011;23184;51.902;12.836;2022-07-06T13:44:03;0.40;;;0.30;;
37299;SDS011;23184;51.902;12.836;2022-07-06T13:46:30;3.05;;;0.50;;
37299;SDS011;23184;51.902;12.836;2022-07-06T13:48:56;0.75;;;0.52;;
37299;SDS011;23184;51.902;12.836;2022-07-06T13:51:25;3.50;;;0.52;;
37299;SDS011;23184;51.902;12.836;2022-07-06T13:53:51;4.32;;;0.57;;
37299;SDS011;23184;51.902;12.836;2022-07-06T13:56:17;3.92;;;0.55;;
37299;SDS011;23184;51.902;12.836;2022-07-06T13:58:43;2.00;;;0.43;;
37299;SDS011;23184;51.902;12.836;2022-07-06T14:01:09;1.95;;;0.40;;
37299;SDS011;23184;51.902;12.836;2022-07-06T14:03:35;1.20;;;0.35;;
37299;SDS011;23184;51.902;12.836;2022-07-06T14:06:02;5.00;;;0.60;;
37299;SDS011;23184;51.902;12.836;2022-07-06T14:08:29;2.65;;;0.50;;
37299;SDS011;23184;51.902;12.836;2022-07-06T14:10:55;2.55;;;0.40;;
37299;SDS011;23184;51.902;12.836;2022-07-06T14:13:21;2.38;;;0.70;;
37299;SDS011;23184;51.902;12.836;2022-07-06T14:15:47;1.35;;;0.30;;
37299;SDS011;23184;51.902;12.836;2022-07-06T14:18:13;4.07;;;0.73;;
37299;SDS011;23184;51.902;12.836;2022-07-06T14:20:42;1.73;;;0.68;;
37299;SDS011;23184;51.902;12.836;2022-07-06T14:23:08;1.25;;;0.45;;
37299;SDS011;23184;51.902;12.836;2022-07-06T14:25:34;1.50;;;0.30;;
37299;SDS011;23184;51.902;12.836;2022-07-06T14:27:59;2.70;;;0.63;;
37299;SDS011;23184;51.902;12.836;2022-07-06T14:30:26;0.93;;;0.47;;
37299;SDS011;23184;51.902;12.836;2022-07-06T14:32:52;4.00;;;0.50;;
37299;SDS011;23184;51.902;12.836;2022-07-06T14:35:18;3.75;;;0.57;;
37299;SDS011;23184;51.902;12.836;2022-07-06T14:37:43;3.25;;;0.43;;
37299;SDS011;23184;51.902;12.836;2022-07-06T14:40:09;6.75;;;0.45;;
37299;SDS011;23184;51.902;12.836;2022-07-06T14:42:34;2.00;;;0.60;;
37299;SDS011;23184;51.902;12.836;2022-07-06T14:45:00;2.92;;;0.50;;
37299;SDS011;23184;51.902;12.836;2022-07-06T14:47:26;1.33;;;0.40;;
37299;SDS011;23184;51.902;12.836;2022-07-06T14:49:51;3.13;;;0.50;;
37299;SDS011;23184;51.902;12.836;2022-07-06T14:52:17;3.50;;;0.52;;
37299;SDS011;23184;51.902;12.836;2022-07-06T14:54:43;6.60;;;0.60;;
37299;SDS011;23184;51.902;12.836;2022-07-06T14:57:09;2.60;;;0.40;;
37299;SDS011;23184;51.902;12.836;2022-07-06T14:59:34;3.78;;;0.60;;
37299;SDS011;23184;51.902;12.836;2022-07-06T15:02:00;1.88;;;0.50;;
37299;SDS011;23184;51.902;12.836;2022-07-06T15:04:26;1.75;;;0.40;;
37299;SDS011;23184;51.902;12.836;2022-07-06T15:06:52;4.53;;;0.68;;